Time;durP1;ratioP1;P1;durP2;ratioP2;P2;SDS_P1;SDS_P2;PMS_P1;PMS_P2;Temp;Humidity;BMP_temperature;BMP_pressure;BME280_temperature;BME280_humidity;BME280_pressure;Samples;Min_cycle;Max_cycle;Signal;HPM_P1;HPM_P2
2023/01/31 00:01:31;;;;;;;34.40;20.90;;;;;;;-0.05;94.95;99810.77;1438330;91;22877;-84
2023/01/31 00:04:02;;;;;;;34.80;21.45;;;;;;;-0.05;94.68;99812.08;1430933;90;21612;-83
2023/01/31 00:06:32;;;;;;;31.20;19.52;;;;;;;-0.08;94.38;99809.66;1442046;90;22492;-85
2023/01/31 00:09:01;;;;;;;32.93;20.33;;;;;;;-0.11;94.28;99804.66;1439996;90;22479;-84
2023/01/31 00:11:29;;;;;;;32.77;19.67;;;;;;;-0.18;94.50;99817.66;1442354;90;22482;-86
2023/01/31 00:13:58;;;;;;;34.07;20.57;;;;;;;-0.24;94.38;99802.43;1444081;90;21534;-85
2023/01/31 00:16:25;;;;;;;34.37;21.87;;;;;;;-0.27;94.26;99802.62;1436974;90;22474;-87
2023/01/31 00:18:51;;;;;;;32.83;19.63;;;;;;;-0.32;94.32;99799.45;1435778;90;21724;-88
2023/01/31 00:21:22;;;;;;;37.60;21.45;;;;;;;-0.34;94.39;99801.34;1446689;90;21730;-86
2023/01/31 00:23:50;;;;;;;34.78;20.75;;;;;;;-0.38;94.53;99801.13;1439505;90;21468;-88
2023/01/31 00:26:26;;;;;;;35.30;21.07;;;;;;;-0.42;94.55;99806.99;1427065;90;21364;-85
2023/01/31 00:28:54;;;;;;;29.87;19.50;;;;;;;-0.47;94.38;99809.86;1437012;91;21600;-85
2023/01/31 00:31:22;;;;;;;31.30;20.00;;;;;;;-0.50;94.35;99820.44;1448162;90;22561;-88
2023/01/31 00:33:51;;;;;;;35.60;22.77;;;;;;;-0.52;94.31;99811.92;1431477;90;21845;-89
2023/01/31 00:36:21;;;;;;;37.47;22.77;;;;;;;-0.53;94.46;99814.12;1432547;90;21643;-88
2023/01/31 00:38:50;;;;;;;46.23;26.65;;;;;;;-0.59;95.13;99813.20;1444191;90;21629;-88
2023/01/31 00:41:18;;;;;;;46.40;27.30;;;;;;;-0.67;95.28;99822.38;1436717;91;21617;-87
2023/01/31 00:43:45;;;;;;;41.60;25.90;;;;;;;-0.74;94.99;99817.55;1442618;91;21956;-89
2023/01/31 00:46:11;;;;;;;36.33;22.42;;;;;;;-0.76;94.89;99827.66;1437348;90;21504;-85
2023/01/31 00:48:37;;;;;;;34.08;20.90;;;;;;;-0.76;95.32;99831.56;1438480;90;21474;-88
2023/01/31 00:51:04;;;;;;;34.15;20.95;;;;;;;-0.78;95.69;99834.70;1445731;90;21468;-86
2023/01/31 00:53:30;;;;;;;31.85;19.95;;;;;;;-0.80;95.74;99833.98;1447576;90;21377;-88
2023/01/31 00:56:07;;;;;;;35.85;21.85;;;;;;;-0.82;95.36;99823.66;1443576;90;21579;-89
2023/01/31 00:58:34;;;;;;;34.73;21.27;;;;;;;-0.85;95.40;99820.41;1440342;90;21522;-87
2023/01/31 01:01:08;;;;;;;32.67;20.37;;;;;;;-0.87;95.31;99824.38;1434452;90;21401;-88
2023/01/31 01:03:36;;;;;;;36.08;21.23;;;;;;;-0.87;95.34;99814.45;1441069;90;21547;-88
2023/01/31 01:06:02;;;;;;;38.17;21.93;;;;;;;-0.91;95.41;99808.62;1448636;90;21526;-89
2023/01/31 01:08:30;;;;;;;36.42;21.57;;;;;;;-0.94;95.69;99814.82;1436750;90;21764;-89
2023/01/31 01:10:58;;;;;;;35.03;21.68;;;;;;;-0.98;95.88;99816.38;1449234;90;21297;-85
2023/01/31 01:13:24;;;;;;;34.85;21.75;;;;;;;-1.03;96.36;99810.17;1436691;90;21394;-89
2023/01/31 01:15:50;;;;;;;33.80;22.07;;;;;;;-1.03;96.44;99820.56;1448244;89;21606;-89
2023/01/31 01:18:16;;;;;;;37.13;20.95;;;;;;;-1.00;96.09;99824.74;1426322;90;21363;-90
2023/01/31 01:20:42;;;;;;;32.63;21.68;;;;;;;-1.00;96.16;99813.89;1439401;90;21467;-89
2023/01/31 01:23:09;;;;;;;33.67;21.12;;;;;;;-1.01;96.18;99818.69;1439819;90;22377;-90
2023/01/31 01:25:44;;;;;;;39.63;26.65;;;;;;;-1.03;96.29;99819.73;1441150;90;21357;-90
2023/01/31 01:28:11;;;;;;;42.30;23.10;;;;;;;-1.06;96.99;99821.20;1441263;90;21511;-86
2023/01/31 01:30:38;;;;;;;39.75;25.32;;;;;;;-1.09;98.21;99826.55;1443782;90;21513;-89
2023/01/31 01:33:05;;;;;;;35.38;22.27;;;;;;;-1.10;98.88;99826.19;1447146;90;21320;-89
2023/01/31 01:35:31;;;;;;;38.42;22.42;;;;;;;-1.09;99.08;99816.16;1443283;90;21534;-89
2023/01/31 01:37:57;;;;;;;35.92;22.58;;;;;;;-1.06;98.93;99828.53;1447605;89;21342;-90
2023/01/31 01:40:23;;;;;;;35.30;23.47;;;;;;;-1.03;99.36;99834.84;1458025;89;21569;-89
2023/01/31 01:42:49;;;;;;;35.55;22.17;;;;;;;-0.99;98.76;99843.29;1459175;88;21377;-87
2023/01/31 01:45:16;;;;;;;35.17;22.82;;;;;;;-0.94;98.81;99846.00;1472254;88;21325;-91
2023/01/31 01:48:01;;;;;;;34.85;22.45;;;;;;;-0.86;98.73;99857.69;1479750;88;21494;-90
2023/01/31 01:50:39;;;;;;;34.65;20.90;;;;;;;-0.82;98.79;99850.94;1473253;88;21302;-91
2023/01/31 01:53:17;;;;;;;36.98;21.50;;;;;;;-0.78;98.59;99846.39;1476435;88;21443;-91
2023/01/31 01:55:48;;;;;;;42.30;26.42;;;;;;;-0.76;98.69;99848.45;1478942;88;21376;-91
2023/01/31 01:58:25;;;;;;;39.53;22.50;;;;;;;-0.73;98.62;99841.77;1457058;88;21391;-91
2023/01/31 02:00:53;;;;;;;34.13;22.80;;;;;;;-0.68;99.00;99842.34;1465274;88;21376;-91
2023/01/31 02:03:20;;;;;;;30.87;18.93;;;;;;;-0.62;98.74;99834.65;1471520;88;23634;-87
2023/01/31 02:05:51;;;;;;;32.45;21.20;;;;;;;-0.57;98.46;99826.95;1483380;88;21801;-91
2023/01/31 02:08:20;;;;;;;32.03;19.92;;;;;;;-0.51;98.58;99821.85;1474886;88;21443;-91
2023/01/31 02:11:07;;;;;;;32.43;19.83;;;;;;;-0.46;98.48;99821.12;1466820;88;21354;-87
2023/01/31 02:13:34;;;;;;;36.70;21.90;;;;;;;-0.42;98.27;99824.36;1472986;88;21980;-91
2023/01/31 02:16:00;;;;;;;33.07;20.57;;;;;;;-0.48;98.16;99828.16;1481542;88;21561;-91
2023/01/31 02:18:27;;;;;;;33.73;20.63;;;;;;;-0.49;98.25;99846.83;1473361;88;22386;-91
2023/01/31 02:21:23;;;;;;;33.27;20.73;;;;;;;-0.50;97.84;99847.73;1476017;88;21459;-91
2023/01/31 02:24:41;;;;;;;31.37;19.43;;;;;;;-0.53;98.20;99836.23;1473027;88;22076;-89
2023/01/31 02:27:49;;;;;;;35.92;21.33;;;;;;;-0.53;97.98;99842.72;1478777;88;21995;-91
2023/01/31 02:30:50;;;;;;;40.80;23.35;;;;;;;-0.55;97.97;99850.23;1469844;88;21369;-90
2023/01/31 02:33:37;;;;;;;39.98;24.10;;;;;;;-0.58;98.43;99836.95;1466102;88;21405;-91
2023/01/31 02:36:18;;;;;;;35.30;22.27;;;;;;;-0.63;98.14;99831.22;1473334;88;22322;-89
2023/01/31 02:39:15;;;;;;;35.60;22.85;;;;;;;-0.65;98.46;99833.06;1470507;88;21598;-87
2023/01/31 02:42:08;;;;;;;33.75;21.35;;;;;;;-0.69;98.82;99833.72;1478215;88;21509;-86
2023/01/31 02:45:28;;;;;;;41.33;22.62;;;;;;;-0.70;98.53;99846.78;1463678;88;21428;-89
2023/01/31 02:48:22;;;;;;;35.30;21.55;;;;;;;-0.74;99.33;99845.31;1459064;89;21407;-91
2023/01/31 02:51:09;;;;;;;37.80;22.30;;;;;;;-0.75;99.08;99839.72;1465503;88;21436;-89
2023/01/31 02:53:46;;;;;;;35.28;21.17;;;;;;;-0.78;98.88;99855.02;1471678;88;21592;-87
2023/01/31 02:56:27;;;;;;;34.53;21.80;;;;;;;-0.77;98.82;99855.88;1470012;88;21524;-91
2023/01/31 02:59:07;;;;;;;37.48;23.30;;;;;;;-0.78;98.88;99858.92;1456979;88;21370;-88
2023/01/31 03:01:45;;;;;;;37.05;23.73;;;;;;;-0.80;98.87;99857.36;1461036;88;21564;-88
2023/01/31 03:04:13;;;;;;;33.08;21.20;;;;;;;-0.83;98.89;99853.18;1466065;88;21443;-91
2023/01/31 03:07:08;;;;;;;93.50;56.28;;;;;;;-0.84;98.84;99842.39;1472833;88;21391;-89
2023/01/31 03:09:43;;;;;;;134.60;75.70;;;;;;;-0.84;98.60;99847.59;1474093;88;21694;-88
2023/01/31 03:12:30;;;;;;;63.52;40.98;;;;;;;-0.81;98.42;99864.30;1477093;88;21531;-88
2023/01/31 03:15:16;;;;;;;41.85;25.72;;;;;;;-0.83;98.19;99867.94;1481994;88;21370;-86
2023/01/31 03:18:09;;;;;;;44.33;30.92;;;;;;;-0.86;98.04;99858.99;1471467;88;21369;-92
2023/01/31 03:20:58;;;;;;;37.38;24.40;;;;;;;-0.87;97.98;99862.52;1473573;88;21502;-90
2023/01/31 03:23:29;;;;;;;30.65;19.50;;;;;;;-0.91;98.08;99864.00;1470721;88;21384;-91
2023/01/31 03:25:59;;;;;;;34.05;20.12;;;;;;;-0.91;98.10;99870.50;1475492;88;21510;-91
2023/01/31 03:28:29;;;;;;;33.65;20.45;;;;;;;-0.95;97.83;99866.42;1469838;88;21430;-84
2023/01/31 03:31:17;;;;;;;32.03;20.82;;;;;;;-0.99;97.65;99870.09;1477737;88;21476;-91
2023/01/31 03:33:50;;;;;;;30.75;17.90;;;;;;;-1.01;97.58;99882.33;1470593;88;21612;-88
2023/01/31 03:36:37;;;;;;;37.53;22.20;;;;;;;-1.01;97.78;99885.39;1514331;88;21569;-89
2023/01/31 03:39:33;;;;;;;44.73;22.55;;;;;;;-1.04;97.32;99891.59;1477673;88;21464;-91
2023/01/31 03:42:16;;;;;;;38.78;22.75;;;;;;;-1.05;97.44;99890.40;1468886;88;21347;-93
2023/01/31 03:45:03;;;;;;;36.00;23.87;;;;;;;-1.11;97.72;99892.88;1471338;88;21679;-87
2023/01/31 03:47:42;;;;;;;34.33;20.45;;;;;;;-1.13;97.36;99896.02;1473994;88;21495;-92
2023/01/31 03:50:17;;;;;;;30.15;19.73;;;;;;;-1.12;97.34;99897.70;1465945;88;22168;-91
2023/01/31 03:53:01;;;;;;;35.55;20.50;;;;;;;-1.11;97.16;99901.14;1473412;88;21361;-93
2023/01/31 03:55:32;;;;;;;31.68;19.87;;;;;;;-1.13;97.10;99899.91;1474920;88;21398;-89
2023/01/31 03:58:01;;;;;;;36.90;23.23;;;;;;;-1.13;97.12;99899.91;1470437;88;21442;-92
2023/01/31 04:00:27;;;;;;;37.88;23.73;;;;;;;-1.17;97.60;99903.61;1470852;88;21376;-91
2023/01/31 04:02:59;;;;;;;33.60;19.40;;;;;;;-1.19;97.32;99914.54;1480055;88;21484;-89
2023/01/31 04:05:30;;;;;;;30.23;17.70;;;;;;;-1.21;97.47;99919.84;1478842;88;21413;-90
2023/01/31 04:07:55;;;;;;;31.15;19.90;;;;;;;-1.25;97.56;99918.78;1479940;88;21398;-91
2023/01/31 04:10:22;;;;;;;35.58;20.45;;;;;;;-1.27;98.08;99906.34;1470716;88;21398;-87
2023/01/31 04:12:48;;;;;;;31.40;20.08;;;;;;;-1.30;98.54;99915.59;1474654;88;21435;-90
2023/01/31 04:15:14;;;;;;;31.42;19.27;;;;;;;-1.30;98.51;99915.59;1470252;88;21493;-90
2023/01/31 04:17:40;;;;;;;38.30;21.17;;;;;;;-1.30;99.50;99915.59;1474812;88;21361;-92
2023/01/31 04:20:09;;;;;;;37.33;21.20;;;;;;;-1.32;98.93;99929.11;1483549;88;22426;-88
2023/01/31 04:22:35;;;;;;;34.92;22.40;;;;;;;-1.31;99.08;99934.70;1474049;88;21505;-91
2023/01/31 04:25:02;;;;;;;31.55;20.27;;;;;;;-1.30;98.86;99933.77;1478058;88;21414;-91
2023/01/31 04:27:28;;;;;;;32.48;20.40;;;;;;;-1.32;99.34;99937.77;1468230;88;21281;-91
2023/01/31 04:29:54;;;;;;;30.77;19.65;;;;;;;-1.33;99.47;99945.63;1470917;88;22293;-91
2023/01/31 04:32:21;;;;;;;34.83;22.80;;;;;;;-1.33;99.23;99937.83;1469795;88;21346;-92
2023/01/31 04:34:47;;;;;;;31.87;20.32;;;;;;;-1.31;99.09;99947.69;1477217;88;21675;-84
2023/01/31 04:37:13;;;;;;;35.73;19.82;;;;;;;-1.30;99.37;99946.28;1471117;88;21545;-92
2023/01/31 04:39:40;;;;;;;33.75;21.52;;;;;;;-1.26;99.12;99957.36;1474398;87;21449;-86
2023/01/31 04:42:06;;;;;;;39.63;23.95;;;;;;;-1.22;99.11;99951.06;1463163;88;21562;-86
2023/01/31 04:44:33;;;;;;;31.10;19.35;;;;;;;-1.21;98.85;99948.40;1468500;88;22353;-86
2023/01/31 04:46:59;;;;;;;32.67;20.57;;;;;;;-1.23;98.99;99955.42;1463982;88;21465;-91
2023/01/31 04:49:25;;;;;;;40.23;24.92;;;;;;;-1.23;98.68;99959.79;1476402;88;21487;-91
2023/01/31 04:51:52;;;;;;;33.42;20.12;;;;;;;-1.26;99.00;99963.39;1466421;88;22080;-89
2023/01/31 04:54:18;;;;;;;34.50;20.23;;;;;;;-1.28;99.72;99965.22;1482744;88;21686;-91
2023/01/31 04:56:44;;;;;;;30.45;19.23;;;;;;;-1.26;100.00;99962.55;1469154;88;21473;-92
2023/01/31 04:59:11;;;;;;;32.98;20.75;;;;;;;-1.25;100.00;99966.34;1479972;88;21360;-93
2023/01/31 05:01:37;;;;;;;31.15;19.98;;;;;;;-1.28;100.00;99969.58;1466126;88;21392;-90
2023/01/31 05:04:03;;;;;;;28.67;19.40;;;;;;;-1.25;100.00;99972.01;1465275;88;21296;-91
2023/01/31 05:06:30;;;;;;;29.52;19.85;;;;;;;-1.27;100.00;99972.55;1479025;88;21362;-91
2023/01/31 05:09:00;;;;;;;30.60;19.25;;;;;;;-1.25;100.00;99982.39;1469728;88;21642;-91
2023/01/31 05:11:24;;;;;;;31.30;19.50;;;;;;;-1.21;100.00;99986.48;1468692;88;21376;-91
2023/01/31 05:13:50;;;;;;;30.20;18.92;;;;;;;-1.21;100.00;99976.10;1464952;88;21572;-91
2023/01/31 05:16:16;;;;;;;28.98;17.85;;;;;;;-1.21;100.00;99968.31;1471613;88;21341;-86
2023/01/31 05:18:42;;;;;;;32.25;19.20;;;;;;;-1.20;100.00;99981.69;1466080;88;21682;-89
2023/01/31 05:21:10;;;;;;;30.23;19.55;;;;;;;-1.19;100.00;99980.76;1469134;88;21383;-89
2023/01/31 05:23:36;;;;;;;36.90;21.12;;;;;;;-1.18;100.00;99990.22;1481574;88;21304;-91
2023/01/31 05:26:03;;;;;;;35.90;20.68;;;;;;;-1.17;100.00;99990.61;1460651;88;21339;-89
2023/01/31 05:28:30;;;;;;;31.05;19.42;;;;;;;-1.17;100.00;99984.95;1473625;88;22286;-89
2023/01/31 05:31:03;;;;;;;35.90;20.10;;;;;;;-1.14;100.00;99995.64;1469097;88;21706;-90
2023/01/31 05:33:30;;;;;;;41.28;23.12;;;;;;;-1.12;100.00;99996.84;1471295;88;21517;-90
2023/01/31 05:35:57;;;;;;;38.38;20.10;;;;;;;-1.06;100.00;99984.84;1478004;88;22286;-89
2023/01/31 05:38:23;;;;;;;31.87;19.52;;;;;;;-1.03;100.00;99988.09;1460118;88;21428;-90
2023/01/31 05:40:50;;;;;;;30.20;19.03;;;;;;;-1.05;100.00;99983.91;1476523;88;21472;-91
2023/01/31 05:43:16;;;;;;;31.33;20.17;;;;;;;-1.03;100.00;99985.50;1472466;88;22092;-89
2023/01/31 05:45:43;;;;;;;34.13;21.27;;;;;;;-1.00;100.00;99993.59;1465245;88;21310;-91
2023/01/31 05:48:10;;;;;;;36.53;21.17;;;;;;;-0.98;100.00;99995.18;1471306;88;21457;-92
2023/01/31 05:50:36;;;;;;;33.73;19.77;;;;;;;-0.98;100.00;100000.37;1478928;88;22446;-92
2023/01/31 05:53:02;;;;;;;37.43;21.47;;;;;;;-0.97;100.00;100007.23;1473933;88;21750;-85
2023/01/31 05:55:29;;;;;;;37.83;22.33;;;;;;;-0.95;100.00;100003.23;1478454;88;22551;-85
2023/01/31 05:57:56;;;;;;;40.67;23.13;;;;;;;-0.94;100.00;100013.56;1472784;88;22248;-92
2023/01/31 06:00:23;;;;;;;36.42;22.30;;;;;;;-0.94;100.00;100013.56;1468265;88;21557;-90
2023/01/31 06:02:49;;;;;;;41.30;24.43;;;;;;;-0.94;100.00;100013.56;1466368;88;21310;-91
2023/01/31 06:05:16;;;;;;;37.53;23.37;;;;;;;-0.93;100.00;100015.22;1476301;88;22163;-92
2023/01/31 06:07:42;;;;;;;34.07;20.80;;;;;;;-0.86;100.00;100026.57;1478333;88;21899;-90
2023/01/31 06:10:10;;;;;;;36.87;21.80;;;;;;;-0.81;100.00;100028.46;1476175;88;21831;-88
2023/01/31 06:12:37;;;;;;;34.10;22.07;;;;;;;-0.76;100.00;100028.58;1480347;88;22239;-88
2023/01/31 06:15:04;;;;;;;49.73;24.67;;;;;;;-0.71;100.00;100037.44;1461620;88;22589;-90
2023/01/31 06:17:30;;;;;;;37.83;23.98;;;;;;;-0.70;100.00;100039.10;1474338;88;21362;-91
2023/01/31 06:19:56;;;;;;;41.60;24.77;;;;;;;-0.69;100.00;100039.03;1480018;88;22435;-88
2023/01/31 06:22:22;;;;;;;43.83;25.90;;;;;;;-0.62;100.00;100048.62;1483213;88;21621;-92
2023/01/31 06:24:48;;;;;;;41.97;25.53;;;;;;;-0.55;100.00;100048.63;1468471;88;22086;-88
2023/01/31 06:27:14;;;;;;;57.53;35.23;;;;;;;-0.55;100.00;100059.03;1477875;88;21573;-89
2023/01/31 06:29:41;;;;;;;61.03;37.50;;;;;;;-0.51;99.85;100064.45;1470925;88;21769;-87
2023/01/31 06:32:07;;;;;;;57.13;35.87;;;;;;;-0.48;99.76;100069.48;1476940;88;21536;-92
2023/01/31 06:34:33;;;;;;;47.00;28.80;;;;;;;-0.43;99.63;100073.13;1472828;88;22588;-90
2023/01/31 06:36:59;;;;;;;47.60;25.90;;;;;;;-0.38;99.52;100074.16;1459923;88;21582;-91
2023/01/31 06:39:26;;;;;;;49.03;27.53;;;;;;;-0.37;99.22;100074.55;1470102;88;21651;-86
2023/01/31 06:41:52;;;;;;;43.00;24.67;;;;;;;-0.39;98.83;100084.19;1481366;88;21651;-88
2023/01/31 06:44:18;;;;;;;39.07;21.93;;;;;;;-0.40;98.74;100094.20;1479106;88;21571;-90
2023/01/31 06:46:45;;;;;;;43.07;27.70;;;;;;;-0.40;98.74;100103.30;1471064;88;21701;-89
2023/01/31 06:49:12;;;;;;;44.07;27.63;;;;;;;-0.43;98.85;100104.33;1472859;88;21718;-90
2023/01/31 06:51:38;;;;;;;35.67;23.77;;;;;;;-0.38;98.74;100107.48;1471731;88;22677;-92
2023/01/31 06:54:05;;;;;;;40.43;26.83;;;;;;;-0.34;98.82;100105.58;1482528;88;22388;-91
2023/01/31 06:56:31;;;;;;;32.33;22.13;;;;;;;-0.30;98.64;100114.87;1474462;88;22552;-89
2023/01/31 06:58:57;;;;;;;33.27;22.60;;;;;;;-0.28;98.67;100111.73;1469036;88;21569;-89
2023/01/31 07:01:25;;;;;;;34.73;22.17;;;;;;;-0.24;98.74;100114.52;1470710;88;21695;-86
2023/01/31 07:03:51;;;;;;;35.70;22.53;;;;;;;-0.21;98.55;100123.45;1481689;88;21547;-88
2023/01/31 07:06:19;;;;;;;33.53;21.50;;;;;;;-0.18;98.53;100135.45;1481529;88;21786;-88
2023/01/31 07:08:46;;;;;;;36.17;22.50;;;;;;;-0.13;98.46;100135.56;1466235;88;21651;-87
2023/01/31 07:11:12;;;;;;;46.20;29.97;;;;;;;-0.10;98.11;100147.57;1477782;88;21875;-87
2023/01/31 07:13:38;;;;;;;49.27;32.87;;;;;;;-0.07;98.14;100152.59;1479340;88;21924;-87
2023/01/31 07:20:07;;;;;;;74.50;45.73;;;;;;;0.04;98.13;100154.12;1469331;88;22626;-88
2023/01/31 07:22:33;;;;;;;69.37;43.47;;;;;;;0.13;98.03;100145.80;1463578;88;21791;-87
2023/01/31 07:25:00;;;;;;;71.47;44.27;;;;;;;0.21;97.86;100149.27;1471527;88;21601;-88
2023/01/31 07:27:26;;;;;;;68.30;41.80;;;;;;;0.23;97.67;100155.20;1475114;88;21519;-88
2023/01/31 07:29:53;;;;;;;56.93;35.40;;;;;;;0.26;97.50;100152.45;1468639;88;21890;-90
2023/01/31 07:32:19;;;;;;;44.00;26.53;;;;;;;0.27;97.37;100148.91;1475910;88;22471;-88
2023/01/31 07:34:45;;;;;;;45.37;27.53;;;;;;;0.27;97.27;100151.52;1474232;88;21626;-88
2023/01/31 07:37:11;;;;;;;51.87;29.10;;;;;;;0.30;97.21;100150.03;1472001;88;21617;-89
2023/01/31 07:39:37;;;;;;;61.70;31.43;;;;;;;0.36;97.31;100150.97;1472211;88;21599;-85
2023/01/31 07:42:04;;;;;;;82.03;44.13;;;;;;;0.43;97.46;100154.91;1470391;88;21486;-90
2023/01/31 07:44:30;;;;;;;82.67;45.20;;;;;;;0.50;97.23;100166.27;1471566;88;21904;-85
2023/01/31 07:46:56;;;;;;;85.77;45.87;;;;;;;0.54;97.12;100170.35;1468331;88;21665;-87
2023/01/31 07:49:23;;;;;;;63.73;36.20;;;;;;;0.60;97.23;100175.20;1472479;88;22664;-88
2023/01/31 07:51:49;;;;;;;78.77;41.10;;;;;;;0.60;96.94;100174.73;1472160;88;21776;-88
2023/01/31 07:54:15;;;;;;;57.93;33.37;;;;;;;0.62;96.92;100177.25;1474239;88;22471;-89
2023/01/31 07:56:41;;;;;;;47.10;26.80;;;;;;;0.66;96.82;100177.44;1473700;88;21590;-89
2023/01/31 07:59:07;;;;;;;44.27;25.53;;;;;;;0.69;96.77;100181.16;1473295;88;22474;-87
2023/01/31 08:04:18;;;;;;;46.43;25.77;;;;;;;0.79;96.81;100186.69;1478204;88;21615;-87
2023/01/31 08:06:46;;;;;;;36.07;22.13;;;;;;;0.82;96.67;100186.03;1475388;88;21656;-87
2023/01/31 08:09:12;;;;;;;36.73;21.17;;;;;;;0.86;96.84;100183.63;1475172;88;21651;-86
2023/01/31 08:11:39;;;;;;;28.03;19.20;;;;;;;0.93;96.78;100193.69;1477301;88;21654;-88
2023/01/31 08:14:07;;;;;;;35.17;21.37;;;;;;;0.95;96.09;100194.41;1475620;88;23137;-88
2023/01/31 08:16:35;;;;;;;42.20;22.90;;;;;;;0.99;96.21;100195.92;1475297;88;22545;-88
2023/01/31 08:19:01;;;;;;;47.20;24.17;;;;;;;1.04;96.20;100196.48;1476935;88;21552;-88
2023/01/31 08:21:28;;;;;;;40.10;24.07;;;;;;;1.11;96.18;100197.78;1472753;88;21797;-87
2023/01/31 08:23:54;;;;;;;30.50;18.23;;;;;;;1.15;95.92;100204.47;1477222;88;21680;-86
2023/01/31 08:26:21;;;;;;;31.43;18.87;;;;;;;1.16;95.30;100205.33;1474309;88;21479;-88
2023/01/31 08:28:50;;;;;;;27.70;16.07;;;;;;;1.17;95.12;100200.01;1472911;88;21812;-88
2023/01/31 08:31:20;;;;;;;27.93;16.93;;;;;;;1.16;94.77;100202.25;1475752;88;21413;-89
2023/01/31 08:33:50;;;;;;;29.98;18.35;;;;;;;1.18;94.86;100199.09;1472243;88;21672;-85
2023/01/31 08:36:22;;;;;;;41.93;21.93;;;;;;;1.23;95.14;100207.45;1471303;88;21435;-89
2023/01/31 08:38:49;;;;;;;47.23;24.90;;;;;;;1.29;95.30;100209.68;1471590;88;21560;-87
2023/01/31 08:41:17;;;;;;;36.43;21.87;;;;;;;1.34;94.97;100203.73;1483169;88;22567;-87
2023/01/31 08:43:45;;;;;;;37.33;22.27;;;;;;;1.35;94.47;100215.85;1478979;88;21540;-86
2023/01/31 08:46:11;;;;;;;37.20;21.63;;;;;;;1.37;94.65;100222.27;1481059;88;21867;-87
2023/01/31 08:48:38;;;;;;;39.90;21.97;;;;;;;1.39;94.56;100234.75;1479034;88;22601;-88
2023/01/31 08:51:07;;;;;;;33.67;19.77;;;;;;;1.43;94.62;100234.92;1474537;88;21736;-87
2023/01/31 08:53:35;;;;;;;45.33;25.57;;;;;;;1.49;94.74;100232.41;1471881;88;21839;-87
2023/01/31 08:56:05;;;;;;;43.80;22.23;;;;;;;1.56;94.65;100235.02;1476219;88;21649;-86
2023/01/31 08:58:32;;;;;;;35.30;20.10;;;;;;;1.62;94.50;100239.86;1471556;88;22517;-86
2023/01/31 09:01:05;;;;;;;39.17;21.30;;;;;;;1.67;94.54;100243.02;1478293;88;21602;-87
2023/01/31 09:03:31;;;;;;;41.23;22.50;;;;;;;1.72;94.53;100243.55;1457341;88;21614;-86
2023/01/31 09:06:03;;;;;;;31.27;17.27;;;;;;;1.79;94.50;100246.16;1473940;88;21650;-86
2023/01/31 09:08:30;;;;;;;30.33;18.53;;;;;;;1.87;94.42;100250.05;1468737;88;21874;-88
2023/01/31 09:11:00;;;;;;;23.23;14.47;;;;;;;2.00;94.51;100260.10;1479712;88;21770;-87
2023/01/31 09:13:29;;;;;;;19.67;12.50;;;;;;;2.11;94.44;100260.27;1477302;88;21866;-89
2023/01/31 09:16:00;;;;;;;21.43;13.70;;;;;;;2.26;94.66;100266.27;1470434;88;21577;-85
2023/01/31 09:18:27;;;;;;;21.53;13.60;;;;;;;2.38;94.28;100262.03;1478456;88;21899;-86
2023/01/31 09:20:54;;;;;;;23.70;14.47;;;;;;;2.46;92.60;100261.07;1476404;88;22754;-88
2023/01/31 09:23:22;;;;;;;48.07;27.67;;;;;;;2.51;92.01;100270.77;1472582;88;21865;-87
2023/01/31 09:25:55;;;;;;;24.23;15.73;;;;;;;2.51;92.01;100270.77;1469471;88;22813;-88
2023/01/31 09:28:23;;;;;;;20.57;13.53;;;;;;;2.58;91.17;100273.33;1474409;88;22340;-89
2023/01/31 09:30:52;;;;;;;19.77;13.97;;;;;;;2.58;91.17;100278.55;1455103;88;22035;-88
2023/01/31 09:33:20;;;;;;;23.13;14.93;;;;;;;2.62;90.58;100278.74;1477538;88;22052;-89
2023/01/31 09:35:58;;;;;;;25.43;13.80;;;;;;;2.62;90.58;100278.74;1480954;88;22222;-86
2023/01/31 09:38:25;;;;;;;22.97;13.87;;;;;;;2.82;90.51;100275.26;1476178;88;22168;-87
2023/01/31 09:40:52;;;;;;;20.03;13.50;;;;;;;2.82;90.51;100275.26;1473054;88;22230;-87
2023/01/31 09:43:23;;;;;;;24.10;14.90;;;;;;;2.76;87.21;100282.20;1478447;88;22066;-86
2023/01/31 09:45:52;;;;;;;22.87;14.78;;;;;;;2.73;88.31;100279.80;1474865;88;22081;-89
2023/01/31 09:48:24;;;;;;;24.27;15.60;;;;;;;2.77;89.25;100278.67;1482757;88;21535;-87
2023/01/31 09:50:55;;;;;;;23.57;14.50;;;;;;;2.76;89.51;100272.58;1473482;88;22084;-90
2023/01/31 09:53:34;;;;;;;19.23;12.83;;;;;;;2.81;87.84;100282.74;1464696;88;22162;-87
2023/01/31 09:56:41;;;;;;;18.60;12.70;;;;;;;2.79;88.46;100284.61;1469928;88;22088;-87
2023/01/31 09:59:27;;;;;;;19.13;11.20;;;;;;;2.86;88.93;100284.59;1469146;88;22007;-89
2023/01/31 10:02:04;;;;;;;21.13;12.40;;;;;;;2.90;87.31;100284.27;1470153;88;22174;-89
2023/01/31 10:05:02;;;;;;;20.80;11.87;;;;;;;2.92;86.45;100282.88;1473692;88;22139;-90
2023/01/31 10:07:44;;;;;;;19.10;11.20;;;;;;;3.03;88.23;100287.39;1457096;88;22644;-88
2023/01/31 10:10:27;;;;;;;19.73;11.63;;;;;;;3.09;87.02;100287.81;1475482;88;22312;-86
2023/01/31 10:12:58;;;;;;;18.23;11.13;;;;;;;3.17;87.30;100284.69;1475637;88;22240;-89
2023/01/31 10:15:45;;;;;;;17.90;11.40;;;;;;;3.29;86.59;100285.63;1476719;88;22161;-88
2023/01/31 10:18:19;;;;;;;20.67;11.10;;;;;;;3.35;85.78;100288.66;1478887;88;22300;-86
2023/01/31 10:20:55;;;;;;;21.40;12.30;;;;;;;3.41;84.97;100287.41;1465461;88;22162;-89
2023/01/31 10:23:45;;;;;;;33.83;15.50;;;;;;;3.47;84.28;100286.98;1454656;88;23051;-89
2023/01/31 10:26:38;;;;;;;18.07;10.40;;;;;;;3.67;84.37;100292.62;1475117;88;22128;-88
2023/01/31 10:29:18;;;;;;;17.57;9.57;;;;;;;3.61;80.30;100292.09;1478893;88;21532;-89
2023/01/31 10:31:58;;;;;;;32.42;11.10;;;;;;;3.61;80.30;100292.09;1476474;88;21361;-91
2023/01/31 10:34:31;;;;;;;16.67;8.70;;;;;;;3.55;78.68;100289.91;1478536;88;21324;-87
2023/01/31 10:37:15;;;;;;;17.33;8.03;;;;;;;3.43;76.55;100287.31;1477743;88;22343;-89
2023/01/31 10:39:46;;;;;;;19.80;8.67;;;;;;;3.51;79.28;100291.08;1448523;88;22166;-91
2023/01/31 10:42:35;;;;;;;17.35;8.70;;;;;;;3.51;79.28;100291.08;1478311;88;21479;-91
2023/01/31 10:45:18;;;;;;;15.97;8.67;;;;;;;3.58;78.44;100289.70;1477076;88;21362;-92
2023/01/31 10:47:52;;;;;;;16.17;9.33;;;;;;;3.69;76.23;100293.36;1471058;88;22636;-88
2023/01/31 10:50:33;;;;;;;14.53;9.13;;;;;;;3.70;74.23;100295.02;1479148;88;22121;-89
2023/01/31 10:53:30;;;;;;;14.73;9.70;;;;;;;3.79;76.23;100293.06;1472547;88;21472;-76
2023/01/31 10:56:08;;;;;;;18.37;8.53;;;;;;;3.83;77.51;100286.69;1471827;88;21355;-80
2023/01/31 10:58:36;;;;;;;18.10;9.87;;;;;;;3.87;76.03;100284.69;1477979;88;21339;-81
2023/01/31 11:01:10;;;;;;;17.70;8.90;;;;;;;3.90;76.29;100277.92;1470825;88;21391;-85
2023/01/31 11:03:34;;;;;;;14.73;8.03;;;;;;;3.98;75.96;100273.81;1471970;88;22499;-84
2023/01/31 11:06:00;;;;;;;15.80;8.30;;;;;;;4.05;72.57;100268.48;1483706;88;21501;-85
2023/01/31 11:08:58;;;;;;;14.37;9.17;;;;;;;4.25;74.89;100267.53;1458206;88;21450;-85
2023/01/31 11:11:27;;;;;;;13.83;7.67;;;;;;;4.30;72.86;100274.59;1473976;88;21560;-89
2023/01/31 11:14:01;;;;;;;16.00;8.80;;;;;;;4.47;74.82;100270.75;1479518;88;22263;-88
2023/01/31 11:16:35;;;;;;;262.50;104.23;;;;;;;4.60;75.22;100264.12;1474105;88;21670;-88
2023/01/31 11:19:13;;;;;;;55.43;25.30;;;;;;;4.72;75.29;100252.75;1478098;88;21384;-89
2023/01/31 11:21:39;;;;;;;28.10;14.30;;;;;;;4.73;71.84;100251.30;1407750;90;21639;-86
2023/01/31 11:24:26;;;;;;;25.87;12.93;;;;;;;4.78;71.41;100266.70;1471575;88;22375;-88
2023/01/31 11:27:06;;;;;;;42.10;22.37;;;;;;;4.86;71.81;100265.66;1467003;88;22375;-89
2023/01/31 11:29:42;;;;;;;12.47;6.77;;;;;;;4.94;70.62;100261.97;1472096;88;21455;-89
2023/01/31 11:32:22;;;;;;;12.43;6.97;;;;;;;5.15;66.79;100269.16;1466552;88;22367;-87
2023/01/31 11:35:03;;;;;;;18.70;10.97;;;;;;;5.27;66.67;100261.69;1455633;88;21369;-89
2023/01/31 11:37:31;;;;;;;12.27;7.57;;;;;;;5.63;71.18;100267.17;1476097;88;21310;-90
2023/01/31 11:40:04;;;;;;;15.83;9.83;;;;;;;5.66;65.09;100263.47;1471877;88;21464;-89
2023/01/31 11:42:31;;;;;;;9.30;5.73;;;;;;;5.80;63.38;100258.45;1473692;88;22588;-90
2023/01/31 11:45:04;;;;;;;21.17;13.87;;;;;;;5.83;62.60;100262.16;1477773;88;21487;-89